createdAt,value
2022-10-02T11:12:48.495Z,84.71
2022-10-02T11:15:34.502Z,85.16
2022-10-02T11:18:28.766Z,85.43
2022-10-02T11:21:06.163Z,85.75
2022-10-02T11:23:51.685Z,86.14
2022-10-02T11:26:34.696Z,86.24
2022-10-02T11:29:21.436Z,86.09
2022-10-02T11:32:14.959Z,86.29
2022-10-02T11:35:17.252Z,86.56
2022-10-02T11:37:50.399Z,87.05
2022-10-02T11:40:35.058Z,87.78
2022-10-02T11:43:24.943Z,88.36
2022-10-02T11:46:06.484Z,88.32
2022-10-02T11:48:54.114Z,88.45
2022-10-02T11:51:52.702Z,88.74
2022-10-02T11:54:39.147Z,89.36
2022-10-02T11:57:38.950Z,89.74
2022-10-02T12:00:45.490Z,89.87
2022-10-02T12:03:45.109Z,89.62
2022-10-02T12:06:16.802Z,89.28
2022-10-02T12:08:50.517Z,89.42
2022-10-02T12:11:26.170Z,89.08
2022-10-02T12:13:54.838Z,89.08
2022-10-02T12:16:45.110Z,89.26
2022-10-02T12:19:39.431Z,89.00
2022-10-02T12:22:37.509Z,88.85
2022-10-02T12:25:34.481Z,89.38
2022-10-02T12:28:32.061Z,89.25
2022-10-02T12:31:10.531Z,89.30
2022-10-02T12:34:05.795Z,89.19
2022-10-02T12:36:58.514Z,89.48
2022-10-02T12:39:41.784Z,89.92
2022-10-02T12:43:00.420Z,89.77
2022-10-02T12:45:49.154Z,89.77
2022-10-02T12:48:37.512Z,88.93
2022-10-02T12:51:23.508Z,89.18
2022-10-02T12:54:04.906Z,89.12
2022-10-02T12:56:52.885Z,89.28
2022-10-02T12:59:55.899Z,89.15
2022-10-02T13:03:00.995Z,89.29
2022-10-02T13:05:53.554Z,89.22
2022-10-02T13:08:37.988Z,89.17
2022-10-02T13:11:14.694Z,89.36
2022-10-02T13:13:51.634Z,89.74
2022-10-02T13:16:24.635Z,89.91
2022-10-02T13:19:05.731Z,89.82
2022-10-02T13:21:50.836Z,90.03
2022-10-02T13:24:33.905Z,89.97
2022-10-02T13:27:22.440Z,90.24
2022-10-02T13:30:02.443Z,90.39
2022-10-02T13:32:54.436Z,90.26
2022-10-02T13:35:46.233Z,90.29
2022-10-02T13:38:36.134Z,90.44
2022-10-02T13:41:16.379Z,90.48
2022-10-02T13:44:22.356Z,90.56
2022-10-02T13:46:59.414Z,90.92
2022-10-02T13:50:01.234Z,91.31
2022-10-02T13:52:53.632Z,91.21
2022-10-02T13:55:29.235Z,90.63
2022-10-02T13:58:24.907Z,90.14
2022-10-02T14:01:28.730Z,89.75
2022-10-02T14:04:05.489Z,89.37
2022-10-02T14:06:35.091Z,89.50
2022-10-02T14:09:21.124Z,89.02
2022-10-02T14:12:11.979Z,89.10
2022-10-02T14:15:05.404Z,89.06
2022-10-02T14:17:44.282Z,89.04
2022-10-02T14:20:45.944Z,89.02
2022-10-02T14:23:32.320Z,88.83
2022-10-02T14:26:05.651Z,89.12
2022-10-02T14:28:45.026Z,89.63
2022-10-02T14:31:50.310Z,89.82
2022-10-02T14:34:53.150Z,89.96
2022-10-02T14:37:26.754Z,90.12
2022-10-02T14:39:55.183Z,90.52
2022-10-02T14:42:22.646Z,90.39
2022-10-02T14:45:08.997Z,90.17
2022-10-02T14:48:09.448Z,90.13
2022-10-02T14:50:46.296Z,90.20
2022-10-02T14:53:31.562Z,90.32
2022-10-02T14:56:14.470Z,90.10
2022-10-02T14:58:46.466Z,90.02
2022-10-02T15:01:17.110Z,89.49
2022-10-02T15:03:54.569Z,89.47
2022-10-02T15:06:35.984Z,89.09
2022-10-02T15:09:10.830Z,88.61
2022-10-02T15:11:39.918Z,88.43
2022-10-02T15:14:17.927Z,88.48
2022-10-02T15:17:16.390Z,88.57
2022-10-02T15:20:04.348Z,88.51
2022-10-02T15:22:40.271Z,88.05
2022-10-02T15:25:34.482Z,88.53
2022-10-02T15:28:42.319Z,88.94
2022-10-02T15:31:37.415Z,88.95
2022-10-02T15:34:28.099Z,89.17
2022-10-02T15:37:14.665Z,88.82
2022-10-02T15:39:49.400Z,89.08
2022-10-02T15:42:25.551Z,89.32
2022-10-02T15:45:18.196Z,88.91
2022-10-02T15:47:49.340Z,88.93
2022-10-02T15:50:40.967Z,88.84
2022-10-02T15:53:36.650Z,89.18
2022-10-02T15:56:38.865Z,89.29
2022-10-02T15:59:21.637Z,89.57
2022-10-02T16:01:59.600Z,89.46
2022-10-02T16:04:52.221Z,89.30
2022-10-02T16:07:31.911Z,89.51
2022-10-02T16:10:34.441Z,89.75
2022-10-02T16:13:20.971Z,89.91
2022-10-02T16:15:52.145Z,90.24
2022-10-02T16:18:25.670Z,90.17
2022-10-02T16:21:12.773Z,89.60
2022-10-02T16:24:08.302Z,89.65
2022-10-02T16:26:58.023Z,89.66
2022-10-02T16:29:40.217Z,89.71
2022-10-02T16:32:49.090Z,89.80
2022-10-02T16:35:44.541Z,89.42
2022-10-02T16:38:12.228Z,89.30
2022-10-02T16:41:00.333Z,88.87
2022-10-02T16:43:43.316Z,88.50
2022-10-02T16:46:40.536Z,88.53
2022-10-02T16:49:19.457Z,87.34
2022-10-02T16:52:09.371Z,86.18
2022-10-02T16:54:51.485Z,85.24
2022-10-02T16:57:24.185Z,84.46
2022-10-02T17:00:00.692Z,84.01
2022-10-02T17:02:36.745Z,82.97
2022-10-02T17:05:18.082Z,82.88
2022-10-02T17:07:53.166Z,82.24
2022-10-02T17:10:34.501Z,81.42
2022-10-02T17:13:08.212Z,81.73
2022-10-02T17:16:07.130Z,81.44
2022-10-02T17:18:40.963Z,80.67
2022-10-02T17:21:16.009Z,79.16
2022-10-02T17:23:47.839Z,79.56
2022-10-02T17:26:28.544Z,79.75
2022-10-02T17:29:08.222Z,79.20
2022-10-02T17:31:51.996Z,79.87
2022-10-02T17:34:29.641Z,79.93
2022-10-02T17:37:02.954Z,79.53
2022-10-02T17:39:46.468Z,78.87
2022-10-02T17:42:41.220Z,79.17
2022-10-02T17:45:14.912Z,79.38
2022-10-02T17:47:56.896Z,79.23
2022-10-02T17:50:45.969Z,79.27
2022-10-02T17:54:07.375Z,78.42
2022-10-02T17:57:00.250Z,78.41
2022-10-02T17:59:30.850Z,77.45
2022-10-02T18:02:26.736Z,77.72
2022-10-02T18:05:35.244Z,77.61
2022-10-02T18:08:15.221Z,77.88
2022-10-02T18:10:57.528Z,77.85
2022-10-02T18:13:44.041Z,78.03
2022-10-02T18:16:32.531Z,78.21
2022-10-02T18:19:03.789Z,77.89
2022-10-02T18:22:01.775Z,78.11
2022-10-02T18:25:20.466Z,76.63
2022-10-02T18:28:03.553Z,77.30
2022-10-02T18:30:53.735Z,77.51
2022-10-02T18:33:38.496Z,77.59
2022-10-02T18:36:20.102Z,78.01
2022-10-02T18:39:04.684Z,77.10
2022-10-02T18:41:41.791Z,77.09
2022-10-02T18:44:22.506Z,76.86
2022-10-02T18:46:49.987Z,76.86
2022-10-02T18:49:36.257Z,76.84
2022-10-02T18:52:42.203Z,76.92
2022-10-02T18:55:19.089Z,75.88
2022-10-02T18:58:24.839Z,75.87
2022-10-02T19:01:04.818Z,75.45
2022-10-02T19:03:54.400Z,75.07
2022-10-02T19:06:35.284Z,75.74
2022-10-02T19:09:05.378Z,75.62
2022-10-02T19:12:22.269Z,75.51
2022-10-02T19:14:56.142Z,74.89
2022-10-02T19:17:27.568Z,75.47
2022-10-02T19:19:56.311Z,75.60
2022-10-02T19:22:32.205Z,75.77
2022-10-02T19:25:12.012Z,75.90
2022-10-02T19:27:39.936Z,76.03
2022-10-02T19:30:21.546Z,75.89
2022-10-02T19:32:49.750Z,76.31
2022-10-02T19:35:20.839Z,76.44
2022-10-02T19:37:50.437Z,76.89
2022-10-02T19:40:24.010Z,75.83
2022-10-02T19:43:04.861Z,76.10
2022-10-02T19:45:33.905Z,75.62
2022-10-02T19:48:06.919Z,75.56
2022-10-02T19:50:51.755Z,76.04
2022-10-02T19:53:36.259Z,75.91
2022-10-02T19:56:07.278Z,75.82
2022-10-02T19:58:39.868Z,75.64
2022-10-02T20:01:14.725Z,76.08
2022-10-02T20:03:42.503Z,76.25
2022-10-02T20:06:16.351Z,75.97
2022-10-02T20:08:46.119Z,76.11
2022-10-02T20:11:38.004Z,75.13
2022-10-02T20:14:25.561Z,75.84
2022-10-02T20:17:11.405Z,76.17
2022-10-02T20:19:42.794Z,75.68
2022-10-02T20:22:31.756Z,75.38
2022-10-02T20:25:20.655Z,75.11
2022-10-02T20:27:54.171Z,75.55
2022-10-02T20:30:23.501Z,75.41
2022-10-02T20:32:57.566Z,75.26
2022-10-02T20:35:29.348Z,74.18
2022-10-02T20:37:56.940Z,74.19
2022-10-02T20:40:32.437Z,74.49
2022-10-02T20:43:14.288Z,74.43
2022-10-02T20:45:59.486Z,74.86
2022-10-02T20:49:03.085Z,74.42
2022-10-02T20:51:26.878Z,74.48
2022-10-02T20:53:57.601Z,74.71
2022-10-02T20:56:40.276Z,74.33
2022-10-02T20:59:20.041Z,74.46
2022-10-02T21:01:50.359Z,74.86
2022-10-02T21:04:36.446Z,74.34
2022-10-02T21:07:16.667Z,73.80
2022-10-02T21:10:03.719Z,74.35
2022-10-02T21:12:56.267Z,73.51
2022-10-02T21:15:42.119Z,73.88
2022-10-02T21:18:41.006Z,74.09
2022-10-02T21:21:30.373Z,73.44
2022-10-02T21:24:07.034Z,74.13
2022-10-02T21:26:35.774Z,74.10
2022-10-02T21:29:24.270Z,73.78
2022-10-02T21:32:15.868Z,73.56
2022-10-02T21:34:48.184Z,74.09
2022-10-02T21:37:47.374Z,73.17
2022-10-02T21:40:42.743Z,73.42
2022-10-02T21:43:31.505Z,73.14
2022-10-02T21:46:22.132Z,72.73
2022-10-02T21:49:01.661Z,73.44
2022-10-02T21:52:06.942Z,72.65
2022-10-02T21:54:43.790Z,73.00
2022-10-02T21:57:14.158Z,73.37
2022-10-02T22:00:02.807Z,73.92
2022-10-02T22:03:04.651Z,73.62
2022-10-02T22:05:51.247Z,73.05
2022-10-02T22:08:40.529Z,73.39
2022-10-02T22:11:33.638Z,73.78
2022-10-02T22:14:08.615Z,73.95
2022-10-02T22:16:36.370Z,73.34
2022-10-02T22:19:20.481Z,73.91
2022-10-02T22:22:20.566Z,73.77
2022-10-02T22:25:18.848Z,73.76
2022-10-02T22:28:11.279Z,73.67
2022-10-02T22:31:14.847Z,72.59
2022-10-02T22:34:04.599Z,71.02
2022-10-02T22:36:46.822Z,71.80
2022-10-02T22:39:54.661Z,70.65
2022-10-02T22:42:27.931Z,70.47
2022-10-02T22:44:58.558Z,71.01
2022-10-02T22:47:59.985Z,70.41
2022-10-02T22:50:38.280Z,70.56
2022-10-02T22:53:24.451Z,70.22
2022-10-02T22:55:55.977Z,69.96
2022-10-02T22:58:23.520Z,70.43
2022-10-02T23:01:11.113Z,70.05
2022-10-02T23:03:47.300Z,69.78
2022-10-02T23:06:31.389Z,70.17
2022-10-02T23:09:08.552Z,69.99
2022-10-02T23:11:44.214Z,70.58
2022-10-02T23:14:20.030Z,70.12
2022-10-02T23:16:51.318Z,70.19
2022-10-02T23:19:28.452Z,70.80
2022-10-02T23:21:58.192Z,70.67
2022-10-02T23:24:32.192Z,70.89
2022-10-02T23:27:02.824Z,70.86
2022-10-02T23:29:57.946Z,71.30
2022-10-02T23:32:27.010Z,71.50
2022-10-02T23:35:01.051Z,71.71
2022-10-02T23:37:43.779Z,71.79
2022-10-02T23:40:17.422Z,71.75
2022-10-02T23:42:57.288Z,72.21
2022-10-02T23:45:27.410Z,72.19
2022-10-02T23:48:00.460Z,72.58
2022-10-02T23:51:13.159Z,72.05
2022-10-02T23:54:20.568Z,72.17
2022-10-02T23:56:48.518Z,72.21
2022-10-02T23:59:38.208Z,72.14
